createdAt,value
2018-07-27T00:02:14.015Z,22.89
2018-07-27T00:04:42.603Z,22.86
2018-07-27T00:07:11.247Z,22.81
2018-07-27T00:09:39.711Z,22.68
2018-07-27T00:12:08.240Z,22.96
2018-07-27T00:14:36.801Z,22.82
2018-07-27T00:17:05.359Z,22.68
2018-07-27T00:19:33.886Z,22.59
2018-07-27T00:22:02.623Z,22.62
2018-07-27T00:24:31.137Z,22.59
2018-07-27T00:26:59.681Z,22.73
2018-07-27T00:29:28.556Z,22.44
2018-07-27T00:31:57.100Z,22.53
2018-07-27T00:34:25.635Z,22.62
2018-07-27T00:36:54.082Z,22.84
2018-07-27T00:39:22.656Z,22.77
2018-07-27T00:41:51.140Z,22.43
2018-07-27T00:44:19.849Z,22.56
2018-07-27T00:46:48.319Z,22.25
2018-07-27T00:49:16.837Z,22.55
2018-07-27T00:51:45.333Z,22.36
2018-07-27T00:54:13.859Z,22.21
2018-07-27T00:56:42.431Z,22.26
2018-07-27T00:59:11.177Z,22.14
2018-07-27T01:01:39.635Z,21.96
2018-07-27T01:04:08.319Z,21.91
2018-07-27T01:06:37.062Z,21.75
2018-07-27T01:09:08.015Z,21.73
2018-07-27T01:11:36.481Z,21.73
2018-07-27T01:14:05.183Z,21.74
2018-07-27T01:16:33.659Z,22.07
2018-07-27T01:19:02.140Z,21.78
2018-07-27T01:21:30.751Z,21.66
2018-07-27T01:23:59.242Z,21.29
2018-07-27T01:26:27.751Z,21.10
2018-07-27T01:28:56.187Z,21.37
2018-07-27T01:31:24.679Z,21.40
2018-07-27T01:33:53.575Z,21.32
2018-07-27T01:36:22.122Z,21.34
2018-07-27T01:38:50.523Z,21.18
2018-07-27T01:41:18.995Z,21.29
2018-07-27T01:43:47.488Z,21.16
2018-07-27T01:46:16.025Z,21.05
2018-07-27T01:48:44.730Z,20.78
2018-07-27T01:51:13.183Z,20.90
2018-07-27T01:53:41.593Z,20.97
2018-07-27T01:56:10.203Z,20.85
2018-07-27T01:58:38.635Z,20.94
2018-07-27T02:01:07.353Z,21.12
2018-07-27T02:03:35.839Z,21.14
2018-07-27T02:06:04.322Z,20.80
2018-07-27T02:08:32.831Z,20.83
2018-07-27T02:11:01.443Z,20.83
2018-07-27T02:13:29.871Z,20.59
2018-07-27T02:15:58.305Z,20.63
2018-07-27T02:18:27.110Z,20.56
2018-07-27T02:20:55.679Z,20.63
2018-07-27T02:23:24.209Z,20.67
2018-07-27T02:25:52.847Z,20.61
2018-07-27T02:28:21.367Z,20.76
2018-07-27T02:30:49.880Z,20.66
2018-07-27T02:33:18.405Z,20.79
2018-07-27T02:35:46.885Z,20.69
2018-07-27T02:38:15.272Z,20.45
2018-07-27T02:40:43.770Z,20.26
2018-07-27T02:43:12.228Z,20.29
2018-07-27T02:45:40.717Z,19.99
2018-07-27T02:48:09.423Z,20.19
2018-07-27T02:50:37.955Z,20.10
2018-07-27T02:53:06.432Z,20.13
2018-07-27T02:55:35.004Z,20.06
2018-07-27T02:58:03.406Z,19.93
2018-07-27T03:00:31.888Z,20.08
2018-07-27T03:03:00.595Z,19.86
2018-07-27T03:05:28.999Z,20.17
2018-07-27T03:07:57.507Z,19.82
2018-07-27T03:10:26.148Z,19.51
2018-07-27T03:12:54.597Z,19.47
2018-07-27T03:15:23.011Z,19.18
2018-07-27T03:17:51.475Z,19.11
2018-07-27T03:20:19.964Z,19.10
2018-07-27T03:22:48.471Z,19.35
2018-07-27T03:25:17.175Z,19.24
2018-07-27T03:27:45.627Z,18.95
2018-07-27T03:30:14.144Z,19.07
2018-07-27T03:32:42.757Z,18.97
2018-07-27T03:35:11.156Z,19.03
2018-07-27T03:37:39.637Z,19.27
2018-07-27T03:40:08.119Z,19.24
2018-07-27T03:42:36.615Z,19.23
2018-07-27T03:45:05.395Z,19.20
2018-07-27T03:47:34.026Z,19.29
2018-07-27T03:50:02.531Z,19.36
2018-07-27T03:52:31.115Z,19.18
2018-07-27T03:54:59.755Z,18.86
2018-07-27T03:57:28.235Z,19.04
2018-07-27T03:59:56.663Z,18.94
2018-07-27T04:02:25.352Z,18.82
2018-07-27T04:04:53.979Z,18.71
2018-07-27T04:07:22.501Z,18.86
2018-07-27T04:09:50.983Z,18.85
2018-07-27T04:12:23.439Z,18.75
2018-07-27T04:14:52.897Z,18.66
2018-07-27T04:17:21.287Z,18.86
2018-07-27T04:19:50.187Z,18.98
2018-07-27T04:22:18.887Z,19.03
2018-07-27T04:24:47.347Z,19.00
2018-07-27T04:27:15.760Z,18.98
2018-07-27T04:29:44.399Z,18.94
2018-07-27T04:32:12.824Z,18.77
2018-07-27T04:34:41.563Z,18.60
2018-07-27T04:37:10.147Z,18.65
2018-07-27T04:39:38.744Z,18.59
2018-07-27T04:42:07.191Z,18.45
2018-07-27T04:44:35.639Z,18.61
2018-07-27T04:47:04.231Z,18.88
2018-07-27T04:49:32.722Z,19.11
2018-07-27T04:52:01.394Z,19.89
2018-07-27T04:54:29.832Z,20.47
2018-07-27T04:56:58.401Z,21.42
2018-07-27T04:59:26.904Z,22.14
2018-07-27T05:01:55.448Z,22.55
2018-07-27T05:04:23.951Z,22.93
2018-07-27T05:06:52.495Z,22.87
2018-07-27T05:09:23.252Z,23.30
2018-07-27T05:11:52.299Z,23.57
2018-07-27T05:14:20.828Z,23.92
2018-07-27T05:16:49.314Z,24.03
2018-07-27T05:19:17.968Z,24.36
2018-07-27T05:21:46.359Z,24.42
2018-07-27T05:24:14.782Z,24.61
2018-07-27T05:26:43.286Z,24.36
2018-07-27T05:29:11.782Z,24.68
2018-07-27T05:31:40.289Z,25.03
2018-07-27T05:34:09.131Z,25.03
2018-07-27T05:36:37.567Z,25.15
2018-07-27T05:39:08.975Z,25.30
2018-07-27T05:41:37.443Z,25.38
2018-07-27T05:44:06.039Z,25.48
2018-07-27T05:46:34.733Z,25.55
2018-07-27T05:49:03.229Z,25.36
2018-07-27T05:51:31.699Z,25.71
2018-07-27T05:54:00.251Z,25.97
2018-07-27T05:56:29.263Z,26.09
2018-07-27T05:58:57.683Z,26.34
2018-07-27T06:01:26.455Z,26.45
2018-07-27T06:03:55.032Z,26.25
2018-07-27T06:06:23.415Z,26.57
2018-07-27T06:08:52.167Z,27.00
2018-07-27T06:11:20.695Z,27.02
2018-07-27T06:13:49.167Z,26.89
2018-07-27T06:16:17.969Z,26.97
2018-07-27T06:18:46.485Z,27.02
2018-07-27T06:21:15.163Z,27.00
2018-07-27T06:23:44.372Z,27.19
2018-07-27T06:26:13.143Z,27.51
2018-07-27T06:28:41.672Z,27.66
2018-07-27T06:31:10.450Z,27.77
2018-07-27T06:33:38.968Z,27.26
2018-07-27T06:36:07.406Z,27.14
2018-07-27T06:38:35.877Z,27.32
2018-07-27T06:41:04.356Z,27.48
2018-07-27T06:43:32.779Z,27.71
2018-07-27T06:46:01.220Z,27.72
2018-07-27T06:48:29.759Z,27.82
2018-07-27T06:50:58.215Z,28.03
2018-07-27T06:53:26.738Z,27.99
2018-07-27T06:55:55.120Z,28.01
2018-07-27T06:58:23.618Z,27.68
2018-07-27T07:00:52.459Z,27.83
2018-07-27T07:03:20.886Z,28.61
2018-07-27T07:05:49.694Z,28.47
2018-07-27T07:08:18.358Z,28.38
2018-07-27T07:10:46.894Z,28.02
2018-07-27T07:13:15.379Z,28.25
2018-07-27T07:15:43.899Z,28.44
2018-07-27T07:18:12.478Z,28.98
2018-07-27T07:20:41.067Z,29.26
2018-07-27T07:23:09.835Z,29.32
2018-07-27T07:25:38.397Z,29.14
2018-07-27T07:28:06.795Z,29.63
2018-07-27T07:30:35.255Z,29.52
2018-07-27T07:33:03.751Z,29.66
2018-07-27T07:35:32.355Z,29.66
2018-07-27T07:38:00.829Z,30.20
2018-07-27T07:40:29.339Z,29.83
2018-07-27T07:42:57.940Z,29.80
2018-07-27T07:45:26.704Z,29.90
2018-07-27T07:47:55.091Z,30.37
2018-07-27T07:50:23.595Z,30.34
2018-07-27T07:52:52.283Z,30.11
2018-07-27T07:55:21.084Z,30.25
2018-07-27T07:57:49.592Z,30.09
2018-07-27T08:00:18.139Z,30.61
2018-07-27T08:02:46.807Z,30.38
2018-07-27T08:05:15.284Z,30.25
2018-07-27T08:07:44.016Z,30.34
2018-07-27T08:10:12.423Z,30.50
2018-07-27T08:12:40.959Z,30.34
2018-07-27T08:15:09.739Z,30.29
2018-07-27T08:17:38.243Z,30.42
2018-07-27T08:20:06.807Z,30.52
2018-07-27T08:22:35.371Z,30.58
2018-07-27T08:25:03.799Z,30.55
2018-07-27T08:27:32.243Z,30.93
2018-07-27T08:30:00.927Z,30.80
2018-07-27T08:32:29.332Z,30.69
2018-07-27T08:34:57.830Z,30.76
2018-07-27T08:37:26.504Z,31.13
2018-07-27T08:39:55.244Z,30.81
2018-07-27T08:42:23.719Z,31.01
2018-07-27T08:44:52.232Z,31.32
2018-07-27T08:47:20.726Z,30.99
2018-07-27T08:49:49.235Z,31.21
2018-07-27T08:52:18.129Z,31.35
2018-07-27T08:54:46.643Z,31.52
2018-07-27T08:57:15.108Z,31.65
2018-07-27T08:59:43.763Z,31.64
2018-07-27T09:02:12.275Z,31.70
2018-07-27T09:04:40.672Z,31.67
2018-07-27T09:07:09.227Z,31.56
2018-07-27T09:09:37.696Z,31.74
2018-07-27T09:12:07.115Z,31.45
2018-07-27T09:14:35.965Z,31.80
2018-07-27T09:17:04.420Z,32.02
2018-07-27T09:19:32.975Z,31.78
2018-07-27T09:22:01.544Z,32.18
2018-07-27T09:24:30.287Z,31.91
2018-07-27T09:26:58.584Z,32.19
2018-07-27T09:29:27.183Z,31.82
2018-07-27T09:31:55.647Z,31.90
2018-07-27T09:34:24.179Z,32.07
2018-07-27T09:36:53.100Z,31.79
2018-07-27T09:39:21.540Z,32.34
2018-07-27T09:41:50.091Z,32.33
2018-07-27T09:44:18.483Z,32.29
2018-07-27T09:46:46.918Z,32.37
2018-07-27T09:49:15.371Z,32.21
2018-07-27T09:51:44.240Z,32.05
2018-07-27T09:54:12.655Z,32.60
2018-07-27T09:56:43.083Z,32.53
2018-07-27T09:59:12.471Z,32.61
2018-07-27T10:01:40.947Z,32.49
2018-07-27T10:04:09.551Z,32.40
2018-07-27T10:06:38.230Z,32.68
2018-07-27T10:09:07.920Z,32.70
2018-07-27T10:11:36.557Z,32.55
2018-07-27T10:14:05.268Z,32.38
2018-07-27T10:16:33.779Z,32.48
2018-07-27T10:19:05.260Z,32.57
2018-07-27T10:21:33.886Z,32.63
2018-07-27T10:24:02.404Z,32.73
2018-07-27T10:26:30.786Z,32.90
2018-07-27T10:28:59.275Z,33.15
2018-07-27T10:31:27.804Z,33.18
2018-07-27T10:33:56.463Z,33.28
2018-07-27T10:36:24.862Z,33.17
2018-07-27T10:38:53.463Z,33.18
2018-07-27T10:41:22.155Z,33.24
2018-07-27T10:43:50.536Z,33.30
2018-07-27T10:46:18.922Z,33.28
2018-07-27T10:48:47.523Z,33.52
2018-07-27T10:51:16.064Z,33.28
2018-07-27T10:53:44.543Z,33.14
2018-07-27T10:56:13.192Z,33.82
2018-07-27T10:58:41.779Z,33.98
2018-07-27T11:01:10.191Z,33.23
2018-07-27T11:03:38.659Z,33.62
2018-07-27T11:06:07.154Z,33.36
2018-07-27T11:08:35.635Z,33.57
2018-07-27T11:11:04.279Z,33.80
2018-07-27T11:13:33.214Z,33.86
2018-07-27T11:16:01.712Z,33.68
2018-07-27T11:18:30.905Z,33.79
2018-07-27T11:21:01.272Z,33.54
2018-07-27T11:23:32.770Z,33.61
2018-07-27T11:26:01.216Z,33.51
2018-07-27T11:28:29.839Z,33.67
2018-07-27T11:30:59.677Z,33.65
2018-07-27T11:33:29.013Z,33.58
2018-07-27T11:35:57.554Z,34.30
2018-07-27T11:38:26.052Z,33.82
2018-07-27T11:40:55.325Z,34.29
2018-07-27T11:43:23.734Z,34.21
2018-07-27T11:45:52.411Z,34.19
2018-07-27T11:48:20.843Z,34.23
2018-07-27T11:50:49.239Z,34.74
2018-07-27T11:53:17.855Z,35.13
2018-07-27T11:55:46.315Z,34.61
2018-07-27T11:58:14.790Z,34.72
2018-07-27T12:00:43.433Z,34.85
2018-07-27T12:03:11.883Z,34.43
2018-07-27T12:05:40.439Z,34.51
2018-07-27T12:08:08.924Z,34.48
2018-07-27T12:10:37.485Z,34.61
2018-07-27T12:13:06.127Z,34.88
2018-07-27T12:15:34.851Z,34.57
2018-07-27T12:18:03.262Z,34.90
2018-07-27T12:20:32.431Z,35.20
2018-07-27T12:23:00.895Z,35.06
2018-07-27T12:25:29.375Z,35.19
2018-07-27T12:27:57.871Z,35.66
2018-07-27T12:30:26.379Z,34.55
2018-07-27T12:32:54.883Z,34.14
2018-07-27T12:35:23.291Z,34.22
2018-07-27T12:37:51.746Z,34.49
2018-07-27T12:40:20.155Z,34.53
2018-07-27T12:42:48.649Z,34.69
2018-07-27T12:45:17.287Z,34.34
2018-07-27T12:47:45.791Z,34.20
2018-07-27T12:50:14.316Z,34.22
2018-07-27T12:52:42.983Z,34.33
2018-07-27T12:55:11.501Z,34.02
2018-07-27T12:57:39.987Z,34.34
2018-07-27T13:00:09.675Z,34.70
2018-07-27T13:02:38.237Z,34.54
2018-07-27T13:05:06.980Z,34.79
2018-07-27T13:07:35.421Z,34.65
2018-07-27T13:10:05.366Z,34.37
2018-07-27T13:12:35.319Z,34.85
2018-07-27T13:15:04.253Z,34.57
2018-07-27T13:17:32.682Z,34.45
2018-07-27T13:20:01.211Z,34.78
2018-07-27T13:22:29.706Z,34.65
2018-07-27T13:24:58.460Z,34.44
2018-07-27T13:27:26.999Z,34.42
2018-07-27T13:29:55.871Z,34.38
2018-07-27T13:32:24.353Z,34.91
2018-07-27T13:34:55.120Z,34.97
2018-07-27T13:37:25.775Z,34.51
2018-07-27T13:42:25.503Z,34.73
2018-07-27T13:44:54.086Z,34.47
2018-07-27T13:47:22.735Z,34.40
2018-07-27T13:49:51.188Z,34.72
2018-07-27T13:52:19.692Z,34.82
2018-07-27T13:54:48.352Z,35.01
2018-07-27T13:57:16.880Z,34.77
2018-07-27T13:59:45.491Z,34.74
2018-07-27T14:02:14.310Z,34.71
2018-07-27T14:04:42.758Z,34.87
2018-07-27T14:07:11.974Z,35.14
2018-07-27T14:09:40.507Z,35.29
2018-07-27T14:12:08.909Z,35.61
2018-07-27T14:14:37.451Z,35.27
2018-07-27T14:17:06.415Z,35.13
2018-07-27T14:19:34.907Z,34.88
2018-07-27T14:22:03.339Z,34.93
2018-07-27T14:24:32.146Z,34.87
2018-07-27T14:27:00.559Z,34.74
2018-07-27T14:29:29.079Z,34.88
2018-07-27T14:31:57.576Z,35.37
2018-07-27T14:34:25.996Z,34.98
2018-07-27T14:36:54.489Z,35.04
2018-07-27T14:39:23.176Z,35.20
2018-07-27T14:41:51.621Z,35.09
2018-07-27T14:44:20.135Z,35.25
2018-07-27T14:46:48.751Z,35.52
2018-07-27T14:49:17.494Z,35.95
2018-07-27T14:51:45.975Z,35.89
2018-07-27T14:54:15.367Z,36.09
2018-07-27T14:56:44.117Z,36.36
2018-07-27T14:59:12.927Z,36.27
2018-07-27T15:01:41.751Z,36.27
2018-07-27T15:04:11.062Z,36.31
2018-07-27T15:06:39.754Z,36.29
2018-07-27T15:09:11.292Z,35.87
2018-07-27T15:11:39.791Z,36.03
2018-07-27T15:14:08.305Z,35.81
2018-07-27T15:16:36.910Z,35.53
2018-07-27T15:19:05.596Z,35.13
2018-07-27T15:21:34.075Z,35.20
2018-07-27T15:24:02.652Z,34.65
2018-07-27T15:26:31.131Z,34.87
2018-07-27T15:28:59.672Z,34.94
2018-07-27T15:31:28.299Z,34.98
2018-07-27T15:33:56.871Z,35.06
2018-07-27T15:36:25.355Z,35.16
2018-07-27T15:38:53.826Z,35.21
2018-07-27T15:41:22.402Z,35.38
2018-07-27T15:43:50.827Z,35.44
2018-07-27T15:46:19.671Z,35.58
2018-07-27T15:48:48.142Z,35.55
2018-07-27T15:51:16.617Z,35.31
2018-07-27T15:53:45.099Z,35.00
2018-07-27T15:56:13.580Z,35.49
2018-07-27T15:58:42.059Z,35.42
2018-07-27T16:01:10.507Z,35.58
2018-07-27T16:03:38.932Z,35.34
2018-07-27T16:06:07.455Z,35.38
2018-07-27T16:08:36.118Z,35.63
2018-07-27T16:11:04.579Z,35.30
2018-07-27T16:13:33.047Z,35.84
2018-07-27T16:16:01.584Z,35.58
2018-07-27T16:18:30.032Z,35.66
2018-07-27T16:20:58.512Z,35.74
2018-07-27T16:23:27.067Z,35.41
2018-07-27T16:25:55.546Z,35.28
2018-07-27T16:28:24.024Z,35.27
2018-07-27T16:30:52.778Z,35.17
2018-07-27T16:33:21.321Z,34.98
2018-07-27T16:35:49.746Z,34.82
2018-07-27T16:38:18.196Z,34.67
2018-07-27T16:40:46.672Z,34.88
2018-07-27T16:43:15.188Z,34.74
2018-07-27T16:45:43.843Z,34.78
2018-07-27T16:48:12.267Z,34.58
2018-07-27T16:50:40.868Z,34.50
2018-07-27T16:53:09.827Z,34.53
2018-07-27T16:55:38.390Z,34.72
2018-07-27T16:58:06.864Z,34.75
2018-07-27T17:00:35.454Z,34.85
2018-07-27T17:03:03.940Z,34.72
2018-07-27T17:05:32.415Z,34.68
2018-07-27T17:08:00.994Z,34.65
2018-07-27T17:10:29.411Z,34.81
2018-07-27T17:12:57.825Z,34.74
2018-07-27T17:15:26.275Z,34.80
2018-07-27T17:17:54.724Z,34.62
2018-07-27T17:20:23.223Z,34.44
2018-07-27T17:22:52.163Z,34.41
2018-07-27T17:25:20.693Z,34.56
2018-07-27T17:27:49.130Z,34.72
2018-07-27T17:30:17.959Z,35.09
2018-07-27T17:32:46.414Z,35.16
2018-07-27T17:35:14.891Z,35.15
2018-07-27T17:37:43.743Z,35.14
2018-07-27T17:40:12.275Z,35.33
2018-07-27T17:42:40.927Z,35.42
2018-07-27T17:45:09.835Z,34.85
2018-07-27T17:47:38.427Z,34.87
2018-07-27T17:50:07.324Z,35.09
2018-07-27T17:52:36.046Z,34.98
2018-07-27T17:55:04.492Z,35.18
2018-07-27T17:57:32.935Z,34.84
2018-07-27T18:00:01.524Z,34.97
2018-07-27T18:02:30.079Z,34.44
2018-07-27T18:04:58.591Z,34.60
2018-07-27T18:07:27.344Z,34.20
2018-07-27T18:09:56.487Z,33.98
2018-07-27T18:12:25.606Z,33.94
2018-07-27T18:14:54.282Z,33.55
2018-07-27T18:17:22.784Z,33.56
2018-07-27T18:19:51.283Z,33.24
2018-07-27T18:22:19.765Z,32.94
2018-07-27T18:24:48.219Z,33.20
2018-07-27T18:27:16.775Z,33.25
2018-07-27T18:29:45.617Z,33.39
2018-07-27T18:32:14.497Z,33.24
2018-07-27T18:34:42.895Z,32.51
2018-07-27T18:37:11.810Z,32.63
2018-07-27T18:39:40.316Z,32.53
2018-07-27T18:42:08.742Z,31.95
2018-07-27T18:44:37.334Z,31.89
2018-07-27T18:47:05.734Z,31.79
2018-07-27T18:49:34.136Z,31.56
2018-07-27T18:52:02.794Z,31.26
2018-07-27T18:54:31.238Z,30.96
2018-07-27T18:56:59.685Z,31.31
2018-07-27T18:59:28.256Z,31.46
2018-07-27T19:01:56.681Z,31.11
2018-07-27T19:04:25.163Z,30.87
2018-07-27T19:06:53.763Z,30.70
2018-07-27T19:09:22.270Z,30.44
2018-07-27T19:11:50.900Z,30.72
2018-07-27T19:14:19.739Z,30.59
2018-07-27T19:16:48.199Z,30.34
2018-07-27T19:19:16.618Z,29.86
2018-07-27T19:21:45.536Z,29.90
2018-07-27T19:24:13.939Z,29.79
2018-07-27T19:26:42.594Z,30.18
2018-07-27T19:29:11.275Z,30.38
2018-07-27T19:31:39.775Z,30.00
2018-07-27T19:34:08.331Z,30.22
2018-07-27T19:36:36.824Z,30.21
2018-07-27T19:39:08.031Z,28.97
2018-07-27T19:41:36.515Z,29.24
2018-07-27T19:44:05.036Z,28.73
2018-07-27T19:46:33.611Z,28.96
2018-07-27T19:49:02.274Z,28.73
2018-07-27T19:51:30.930Z,28.53
2018-07-27T19:53:59.534Z,29.03
2018-07-27T19:56:28.050Z,29.03
2018-07-27T19:58:56.579Z,29.20
2018-07-27T20:01:25.089Z,29.32
2018-07-27T20:03:53.810Z,28.96
2018-07-27T20:06:22.369Z,28.19
2018-07-27T20:08:50.883Z,28.41
2018-07-27T20:11:19.397Z,28.33
2018-07-27T20:13:48.084Z,28.40
2018-07-27T20:16:16.651Z,28.52
2018-07-27T20:18:45.615Z,28.31
2018-07-27T20:21:14.360Z,28.44
2018-07-27T20:23:43.056Z,28.28
2018-07-27T20:26:11.818Z,28.41
2018-07-27T20:28:40.455Z,28.56
2018-07-27T20:31:08.975Z,28.33
2018-07-27T20:33:37.589Z,28.01
2018-07-27T20:36:06.615Z,28.08
2018-07-27T20:38:35.263Z,28.11
2018-07-27T20:41:03.810Z,28.21
2018-07-27T20:43:32.404Z,28.07
2018-07-27T20:46:00.822Z,28.01
2018-07-27T20:48:29.485Z,27.76
2018-07-27T20:50:57.935Z,27.73
2018-07-27T20:53:26.452Z,27.21
2018-07-27T20:55:55.173Z,26.77
2018-07-27T20:58:23.678Z,27.48
2018-07-27T21:00:52.311Z,27.55
2018-07-27T21:03:20.839Z,26.74
2018-07-27T21:05:49.407Z,26.17
2018-07-27T21:08:17.871Z,26.71
2018-07-27T21:10:46.653Z,26.79
2018-07-27T21:13:15.100Z,27.22
2018-07-27T21:15:43.599Z,26.53
2018-07-27T21:18:12.044Z,26.22
2018-07-27T21:20:40.536Z,26.37
2018-07-27T21:23:09.379Z,25.82
2018-07-27T21:25:37.923Z,25.78
2018-07-27T21:28:06.563Z,25.62
2018-07-27T21:30:35.062Z,25.48
2018-07-27T21:33:03.551Z,25.16
2018-07-27T21:35:32.056Z,25.98
2018-07-27T21:38:00.853Z,26.26
2018-07-27T21:40:29.517Z,26.45
2018-07-27T21:42:58.021Z,26.33
2018-07-27T21:45:26.474Z,26.28
2018-07-27T21:47:55.135Z,26.84
2018-07-27T21:50:23.584Z,26.72
2018-07-27T21:52:52.255Z,26.35
2018-07-27T21:55:21.018Z,26.46
2018-07-27T21:57:49.590Z,26.00
2018-07-27T22:00:18.023Z,25.98
2018-07-27T22:02:46.790Z,26.08
2018-07-27T22:05:15.234Z,25.87
2018-07-27T22:07:43.979Z,25.94
2018-07-27T22:10:12.497Z,25.65
2018-07-27T22:12:41.012Z,25.73
2018-07-27T22:15:14.869Z,25.72
2018-07-27T22:17:43.380Z,25.41
2018-07-27T22:20:11.887Z,24.96
2018-07-27T22:22:40.411Z,25.11
2018-07-27T22:25:08.873Z,24.89
2018-07-27T22:27:37.365Z,25.19
2018-07-27T22:30:08.142Z,25.02
2018-07-27T22:32:36.707Z,25.11
2018-07-27T22:35:05.290Z,24.84
2018-07-27T22:37:33.847Z,24.66
2018-07-27T22:40:04.664Z,24.55
2018-07-27T22:42:33.151Z,24.49
2018-07-27T22:45:01.603Z,24.78
2018-07-27T22:47:30.472Z,24.52
2018-07-27T22:49:59.078Z,24.41
2018-07-27T22:52:27.585Z,24.45
2018-07-27T22:54:56.033Z,24.27
2018-07-27T22:57:24.892Z,23.89
2018-07-27T22:59:53.439Z,23.72
2018-07-27T23:02:21.955Z,23.45
2018-07-27T23:04:50.591Z,23.68
2018-07-27T23:07:19.003Z,23.58
2018-07-27T23:09:47.427Z,23.70
2018-07-27T23:12:15.919Z,23.45
2018-07-27T23:14:44.324Z,23.71
2018-07-27T23:17:12.778Z,24.06
2018-07-27T23:19:41.530Z,24.12
2018-07-27T23:22:09.943Z,24.38
2018-07-27T23:24:38.452Z,24.50
2018-07-27T23:27:06.900Z,24.31
2018-07-27T23:29:35.483Z,24.13
2018-07-27T23:32:03.901Z,24.15
2018-07-27T23:34:32.676Z,24.13
2018-07-27T23:37:01.259Z,24.38
2018-07-27T23:39:29.791Z,24.29
2018-07-27T23:41:59.267Z,23.86
2018-07-27T23:44:27.711Z,23.92
2018-07-27T23:46:56.223Z,23.79
2018-07-27T23:49:24.991Z,23.66
2018-07-27T23:51:53.411Z,23.53
2018-07-27T23:54:21.999Z,23.33
2018-07-27T23:56:50.582Z,23.58
2018-07-27T23:59:19.007Z,23.41
